sensor_id;sensor_type;location;lat;lon;timestamp;pressure;altitude;pressure_sealevel;temperature;humidity
16580;BME280;8402;51.466;6.806;2023-12-20T00:00:40;101177.13;;;9.48;100.00
16580;BME280;8402;51.466;6.806;2023-12-20T00:03:10;101178.22;;;9.47;100.00
16580;BME280;8402;51.466;6.806;2023-12-20T00:05:40;101182.22;;;9.49;100.00
16580;BME280;8402;51.466;6.806;2023-12-20T00:08:10;101189.28;;;9.50;100.00
16580;BME280;8402;51.466;6.806;2023-12-20T00:10:43;101186.78;;;9.54;100.00
16580;BME280;8402;51.466;6.806;2023-12-20T00:13:13;101187.66;;;9.49;100.00
16580;BME280;8402;51.466;6.806;2023-12-20T00:15:44;101197.69;;;9.49;100.00
16580;BME280;8402;51.466;6.806;2023-12-20T00:18:13;101192.88;;;9.46;100.00
16580;BME280;8402;51.466;6.806;2023-12-20T00:20:43;101193.75;;;9.41;100.00
16580;BME280;8402;51.466;6.806;2023-12-20T00:23:13;101198.16;;;9.37;100.00
16580;BME280;8402;51.466;6.806;2023-12-20T00:25:46;101199.81;;;9.33;100.00
16580;BME280;8402;51.466;6.806;2023-12-20T00:28:16;101200.44;;;9.30;100.00
16580;BME280;8402;51.466;6.806;2023-12-20T00:30:46;101208.03;;;9.28;100.00
16580;BME280;8402;51.466;6.806;2023-12-20T00:33:15;101212.44;;;9.24;100.00
16580;BME280;8402;51.466;6.806;2023-12-20T00:35:46;101213.59;;;9.18;100.00
16580;BME280;8402;51.466;6.806;2023-12-20T00:38:16;101208.47;;;9.16;100.00
16580;BME280;8402;51.466;6.806;2023-12-20T00:40:48;101204.97;;;9.16;100.00
16580;BME280;8402;51.466;6.806;2023-12-20T00:43:19;101213.16;;;9.10;100.00
16580;BME280;8402;51.466;6.806;2023-12-20T00:45:49;101218.28;;;9.12;100.00
16580;BME280;8402;51.466;6.806;2023-12-20T00:48:19;101226.63;;;9.16;100.00
16580;BME280;8402;51.466;6.806;2023-12-20T00:50:49;101222.22;;;9.20;100.00
16580;BME280;8402;51.466;6.806;2023-12-20T00:53:19;101218.41;;;9.21;100.00
16580;BME280;8402;51.466;6.806;2023-12-20T00:55:51;101222.38;;;9.09;100.00
16580;BME280;8402;51.466;6.806;2023-12-20T00:58:21;101222.81;;;9.17;100.00
16580;BME280;8402;51.466;6.806;2023-12-20T01:00:49;101223.94;;;9.16;100.00
16580;BME280;8402;51.466;6.806;2023-12-20T01:03:21;101218.34;;;9.07;100.00
16580;BME280;8402;51.466;6.806;2023-12-20T01:05:51;101227.78;;;9.09;100.00
16580;BME280;8402;51.466;6.806;2023-12-20T01:08:21;101223.19;;;9.10;100.00
16580;BME280;8402;51.466;6.806;2023-12-20T01:10:54;101234.31;;;9.08;100.00
16580;BME280;8402;51.466;6.806;2023-12-20T01:13:24;101233.78;;;9.06;100.00
16580;BME280;8402;51.466;6.806;2023-12-20T01:15:54;101231.38;;;9.05;100.00
16580;BME280;8402;51.466;6.806;2023-12-20T01:18:24;101241.38;;;9.04;100.00
16580;BME280;8402;51.466;6.806;2023-12-20T01:20:53;101238.97;;;9.03;100.00
16580;BME280;8402;51.466;6.806;2023-12-20T01:23:23;101239.78;;;9.03;100.00
16580;BME280;8402;51.466;6.806;2023-12-20T01:25:56;101240.38;;;9.00;100.00
16580;BME280;8402;51.466;6.806;2023-12-20T01:28:26;101230.13;;;8.97;100.00
16580;BME280;8402;51.466;6.806;2023-12-20T01:30:57;101243.16;;;8.95;100.00
16580;BME280;8402;51.466;6.806;2023-12-20T01:33:27;101238.81;;;8.94;100.00
16580;BME280;8402;51.466;6.806;2023-12-20T01:35:57;101249.06;;;8.97;100.00
16580;BME280;8402;51.466;6.806;2023-12-20T01:38:27;101248.56;;;8.95;100.00
16580;BME280;8402;51.466;6.806;2023-12-20T01:40:59;101248.56;;;8.95;100.00
16580;BME280;8402;51.466;6.806;2023-12-20T01:43:29;101244.75;;;8.96;100.00
16580;BME280;8402;51.466;6.806;2023-12-20T01:46:14;101245.34;;;8.93;100.00
16580;BME280;8402;51.466;6.806;2023-12-20T01:48:45;101227.75;;;8.72;100.00
16580;BME280;8402;51.466;6.806;2023-12-20T01:51:15;101237.03;;;8.85;100.00
16580;BME280;8402;51.466;6.806;2023-12-20T01:53:46;101237.84;;;8.85;100.00
16580;BME280;8402;51.466;6.806;2023-12-20T01:56:19;101239.25;;;8.82;100.00
16580;BME280;8402;51.466;6.806;2023-12-20T01:58:50;101240.63;;;8.80;100.00
16580;BME280;8402;51.466;6.806;2023-12-20T02:01:20;101248.00;;;8.74;100.00
16580;BME280;8402;51.466;6.806;2023-12-20T02:03:52;101249.16;;;8.68;100.00
16580;BME280;8402;51.466;6.806;2023-12-20T02:06:23;101248.41;;;8.63;100.00
16580;BME280;8402;51.466;6.806;2023-12-20T02:08:53;101240.28;;;8.63;100.00
16580;BME280;8402;51.466;6.806;2023-12-20T02:11:26;101234.66;;;8.59;100.00
16580;BME280;8402;51.466;6.806;2023-12-20T02:13:56;101241.97;;;8.59;100.00
16580;BME280;8402;51.466;6.806;2023-12-20T02:16:26;101245.47;;;8.59;100.00
16580;BME280;8402;51.466;6.806;2023-12-20T02:18:56;101247.19;;;8.50;100.00
16580;BME280;8402;51.466;6.806;2023-12-20T02:21:34;101249.97;;;8.45;100.00
16580;BME280;8402;51.466;6.806;2023-12-20T02:24:04;101246.38;;;8.49;100.00
16580;BME280;8402;51.466;6.806;2023-12-20T02:26:34;101248.53;;;8.52;100.00
16580;BME280;8402;51.466;6.806;2023-12-20T02:29:04;101243.63;;;8.54;100.00
16580;BME280;8402;51.466;6.806;2023-12-20T02:31:34;101249.03;;;8.54;100.00
16580;BME280;8402;51.466;6.806;2023-12-20T02:34:04;101245.53;;;8.54;100.00
16580;BME280;8402;51.466;6.806;2023-12-20T02:36:37;101257.75;;;8.51;100.00
16580;BME280;8402;51.466;6.806;2023-12-20T02:39:07;101250.97;;;8.49;100.00
16580;BME280;8402;51.466;6.806;2023-12-20T02:41:37;101253.75;;;8.44;100.00
16580;BME280;8402;51.466;6.806;2023-12-20T02:44:06;101254.09;;;8.37;100.00
16580;BME280;8402;51.466;6.806;2023-12-20T02:46:36;101254.69;;;8.29;100.00
16580;BME280;8402;51.466;6.806;2023-12-20T02:49:07;101246.34;;;8.25;100.00
16580;BME280;8402;51.466;6.806;2023-12-20T02:51:40;101247.13;;;8.26;100.00
16580;BME280;8402;51.466;6.806;2023-12-20T02:54:10;101246.94;;;8.22;100.00
16580;BME280;8402;51.466;6.806;2023-12-20T02:56:40;101267.50;;;8.18;100.00
16580;BME280;8402;51.466;6.806;2023-12-20T02:59:10;101259.69;;;8.17;100.00
16580;BME280;8402;51.466;6.806;2023-12-20T03:01:42;101265.63;;;8.14;100.00
16580;BME280;8402;51.466;6.806;2023-12-20T03:04:12;101265.41;;;8.10;100.00
16580;BME280;8402;51.466;6.806;2023-12-20T03:06:45;101262.75;;;8.05;100.00
16580;BME280;8402;51.466;6.806;2023-12-20T03:09:15;101256.53;;;8.05;100.00
16580;BME280;8402;51.466;6.806;2023-12-20T03:11:44;101265.16;;;8.07;100.00
16580;BME280;8402;51.466;6.806;2023-12-20T03:14:14;101265.16;;;8.07;100.00
16580;BME280;8402;51.466;6.806;2023-12-20T03:16:47;101265.94;;;8.12;100.00
16580;BME280;8402;51.466;6.806;2023-12-20T03:19:17;101254.59;;;8.10;100.00
16580;BME280;8402;51.466;6.806;2023-12-20T03:21:50;101261.66;;;8.06;100.00
16580;BME280;8402;51.466;6.806;2023-12-20T03:24:20;101250.91;;;8.01;100.00
16580;BME280;8402;51.466;6.806;2023-12-20T03:26:50;101247.44;;;7.95;100.00
16580;BME280;8402;51.466;6.806;2023-12-20T03:29:20;101251.22;;;7.94;100.00
16580;BME280;8402;51.466;6.806;2023-12-20T03:31:50;101238.28;;;7.91;100.00
16580;BME280;8402;51.466;6.806;2023-12-20T03:34:20;101237.19;;;7.92;100.00
16580;BME280;8402;51.466;6.806;2023-12-20T03:36:53;101238.28;;;7.91;100.00
16580;BME280;8402;51.466;6.806;2023-12-20T03:39:23;101240.47;;;7.89;100.00
16580;BME280;8402;51.466;6.806;2023-12-20T03:41:53;101242.34;;;7.89;100.00
16580;BME280;8402;51.466;6.806;2023-12-20T03:44:23;101243.75;;;7.86;100.00
16580;BME280;8402;51.466;6.806;2023-12-20T03:46:53;101241.31;;;7.85;100.00
16580;BME280;8402;51.466;6.806;2023-12-20T03:49:23;101240.28;;;7.81;100.00
16580;BME280;8402;51.466;6.806;2023-12-20T03:51:56;101244.06;;;7.80;100.00
16580;BME280;8402;51.466;6.806;2023-12-20T03:54:26;101253.00;;;7.75;100.00
16580;BME280;8402;51.466;6.806;2023-12-20T03:56:56;101253.00;;;7.75;100.00
16580;BME280;8402;51.466;6.806;2023-12-20T03:59:26;101226.56;;;7.72;100.00
16580;BME280;8402;51.466;6.806;2023-12-20T04:01:56;101229.78;;;7.74;100.00
16580;BME280;8402;51.466;6.806;2023-12-20T04:04:26;101229.28;;;7.72;100.00
16580;BME280;8402;51.466;6.806;2023-12-20T04:06:58;101229.03;;;7.63;100.00
16580;BME280;8402;51.466;6.806;2023-12-20T04:09:29;101219.59;;;7.66;100.00
16580;BME280;8402;51.466;6.806;2023-12-20T04:11:58;101226.09;;;7.65;100.00
16580;BME280;8402;51.466;6.806;2023-12-20T04:14:28;101230.44;;;7.61;100.00
16580;BME280;8402;51.466;6.806;2023-12-20T04:16:58;101244.75;;;7.56;100.00
16580;BME280;8402;51.466;6.806;2023-12-20T04:19:28;101242.59;;;7.58;100.00
16580;BME280;8402;51.466;6.806;2023-12-20T04:22:01;101234.28;;;7.50;100.00
16580;BME280;8402;51.466;6.806;2023-12-20T04:24:31;101229.94;;;7.54;100.00
16580;BME280;8402;51.466;6.806;2023-12-20T04:27:01;101227.81;;;7.51;100.00
16580;BME280;8402;51.466;6.806;2023-12-20T04:29:31;101240.75;;;7.54;100.00
16580;BME280;8402;51.466;6.806;2023-12-20T04:32:01;101239.69;;;7.50;100.00
16580;BME280;8402;51.466;6.806;2023-12-20T04:34:31;101246.72;;;7.51;100.00
16580;BME280;8402;51.466;6.806;2023-12-20T04:37:03;101255.88;;;7.50;100.00
16580;BME280;8402;51.466;6.806;2023-12-20T04:39:33;101253.19;;;7.50;100.00
16580;BME280;8402;51.466;6.806;2023-12-20T04:42:04;101249.13;;;7.52;100.00
16580;BME280;8402;51.466;6.806;2023-12-20T04:44:34;101246.66;;;7.56;100.00
16580;BME280;8402;51.466;6.806;2023-12-20T04:47:04;101243.97;;;7.56;100.00
16580;BME280;8402;51.466;6.806;2023-12-20T04:49:34;101248.81;;;7.59;100.00
16580;BME280;8402;51.466;6.806;2023-12-20T04:52:07;101251.22;;;7.60;100.00
16580;BME280;8402;51.466;6.806;2023-12-20T04:54:36;101248.00;;;7.58;100.00
16580;BME280;8402;51.466;6.806;2023-12-20T04:57:10;101253.63;;;7.62;100.00
16580;BME280;8402;51.466;6.806;2023-12-20T04:59:40;101238.81;;;7.59;100.00
16580;BME280;8402;51.466;6.806;2023-12-20T05:02:10;101249.34;;;7.56;100.00
16580;BME280;8402;51.466;6.806;2023-12-20T05:04:40;101246.72;;;7.51;100.00
16580;BME280;8402;51.466;6.806;2023-12-20T05:07:12;101252.91;;;7.51;100.00
16580;BME280;8402;51.466;6.806;2023-12-20T05:09:42;101250.47;;;7.50;100.00
16580;BME280;8402;51.466;6.806;2023-12-20T05:12:12;101250.47;;;7.50;100.00
16580;BME280;8402;51.466;6.806;2023-12-20T05:14:42;101247.53;;;7.51;100.00
16580;BME280;8402;51.466;6.806;2023-12-20T05:17:12;101256.44;;;7.52;100.00
16580;BME280;8402;51.466;6.806;2023-12-20T05:19:42;101250.47;;;7.50;100.00
16580;BME280;8402;51.466;6.806;2023-12-20T05:22:14;101249.97;;;7.48;100.00
16580;BME280;8402;51.466;6.806;2023-12-20T05:24:44;101241.84;;;7.48;100.00
16580;BME280;8402;51.466;6.806;2023-12-20T05:27:14;101239.72;;;7.44;100.00
16580;BME280;8402;51.466;6.806;2023-12-20T05:29:44;101238.66;;;7.45;100.00
16580;BME280;8402;51.466;6.806;2023-12-20T05:32:14;101244.03;;;7.51;100.00
16580;BME280;8402;51.466;6.806;2023-12-20T05:34:44;101232.66;;;7.49;100.00
16580;BME280;8402;51.466;6.806;2023-12-20T05:37:17;101234.81;;;7.52;100.00
16580;BME280;8402;51.466;6.806;2023-12-20T05:39:47;101233.72;;;7.53;100.00
16580;BME280;8402;51.466;6.806;2023-12-20T05:42:17;101230.50;;;7.51;100.00
16580;BME280;8402;51.466;6.806;2023-12-20T05:44:47;101230.50;;;7.51;100.00
16580;BME280;8402;51.466;6.806;2023-12-20T05:47:21;101218.06;;;7.50;100.00
16580;BME280;8402;51.466;6.806;2023-12-20T05:49:51;101219.16;;;7.49;100.00
16580;BME280;8402;51.466;6.806;2023-12-20T05:52:23;101222.44;;;7.45;100.00
16580;BME280;8402;51.466;6.806;2023-12-20T05:54:53;101218.66;;;7.47;100.00
16580;BME280;8402;51.466;6.806;2023-12-20T05:57:24;101221.94;;;7.43;100.00
16580;BME280;8402;51.466;6.806;2023-12-20T05:59:54;101227.34;;;7.38;100.00
16580;BME280;8402;51.466;6.806;2023-12-20T06:02:24;101237.56;;;7.41;100.00
16580;BME280;8402;51.466;6.806;2023-12-20T06:04:54;101240.81;;;7.43;100.00
16580;BME280;8402;51.466;6.806;2023-12-20T06:07:27;101233.78;;;7.42;100.00
16580;BME280;8402;51.466;6.806;2023-12-20T06:09:57;101233.25;;;7.45;100.00
16580;BME280;8402;51.466;6.806;2023-12-20T06:12:28;101229.16;;;7.48;100.00
16580;BME280;8402;51.466;6.806;2023-12-20T06:15:00;101226.72;;;7.52;100.00
16580;BME280;8402;51.466;6.806;2023-12-20T06:17:30;101227.53;;;7.52;100.00
16580;BME280;8402;51.466;6.806;2023-12-20T06:20:02;101233.16;;;7.56;100.00
16580;BME280;8402;51.466;6.806;2023-12-20T06:22:37;101234.53;;;7.53;100.00
16580;BME280;8402;51.466;6.806;2023-12-20T06:25:08;101242.34;;;7.55;100.00
16580;BME280;8402;51.466;6.806;2023-12-20T06:27:38;101246.16;;;7.49;100.00
16580;BME280;8402;51.466;6.806;2023-12-20T06:30:08;101241.31;;;7.51;100.00
16580;BME280;8402;51.466;6.806;2023-12-20T06:32:39;101232.94;;;7.52;100.00
16580;BME280;8402;51.466;6.806;2023-12-20T06:35:09;101229.94;;;7.54;100.00
16580;BME280;8402;51.466;6.806;2023-12-20T06:37:42;101221.03;;;7.53;100.00
16580;BME280;8402;51.466;6.806;2023-12-20T06:40:12;101227.75;;;7.56;100.00
16580;BME280;8402;51.466;6.806;2023-12-20T06:42:44;101229.38;;;7.57;100.00
16580;BME280;8402;51.466;6.806;2023-12-20T06:45:30;101227.75;;;7.56;100.00
16580;BME280;8402;51.466;6.806;2023-12-20T06:48:01;101238.56;;;7.56;100.00
16580;BME280;8402;51.466;6.806;2023-12-20T06:50:31;101239.38;;;7.56;100.00
16580;BME280;8402;51.466;6.806;2023-12-20T06:53:03;101243.41;;;7.59;100.00
16580;BME280;8402;51.466;6.806;2023-12-20T06:55:35;101241.00;;;7.57;100.00
16580;BME280;8402;51.466;6.806;2023-12-20T06:58:05;101240.16;;;7.57;100.00
16580;BME280;8402;51.466;6.806;2023-12-20T07:00:35;101229.38;;;7.57;100.00
16580;BME280;8402;51.466;6.806;2023-12-20T07:03:05;101229.91;;;7.59;100.00
16580;BME280;8402;51.466;6.806;2023-12-20T07:05:35;101232.03;;;7.62;100.00
16580;BME280;8402;51.466;6.806;2023-12-20T07:08:08;101219.03;;;7.64;100.00
16580;BME280;8402;51.466;6.806;2023-12-20T07:10:41;101225.50;;;7.68;100.00
16580;BME280;8402;51.466;6.806;2023-12-20T07:13:11;101220.69;;;7.65;100.00
16580;BME280;8402;51.466;6.806;2023-12-20T07:15:41;101227.63;;;7.71;100.00
16580;BME280;8402;51.466;6.806;2023-12-20T07:18:11;101209.56;;;7.71;100.00
16580;BME280;8402;51.466;6.806;2023-12-20T07:20:41;101214.97;;;7.71;100.00
16580;BME280;8402;51.466;6.806;2023-12-20T07:23:13;101230.34;;;7.71;100.00
16580;BME280;8402;51.466;6.806;2023-12-20T07:25:43;101230.34;;;7.71;100.00
16580;BME280;8402;51.466;6.806;2023-12-20T07:28:13;101223.31;;;7.70;100.00
16580;BME280;8402;51.466;6.806;2023-12-20T07:30:43;101230.34;;;7.71;100.00
16580;BME280;8402;51.466;6.806;2023-12-20T07:33:13;101227.13;;;7.69;100.00
16580;BME280;8402;51.466;6.806;2023-12-20T07:35:45;101234.69;;;7.72;100.00
16580;BME280;8402;51.466;6.806;2023-12-20T07:38:18;101222.22;;;7.71;100.00
16580;BME280;8402;51.466;6.806;2023-12-20T07:40:48;101233.03;;;7.71;100.00
16580;BME280;8402;51.466;6.806;2023-12-20T07:43:18;101221.72;;;7.69;100.00
16580;BME280;8402;51.466;6.806;2023-12-20T07:45:48;101229.81;;;7.69;100.00
16580;BME280;8402;51.466;6.806;2023-12-20T07:48:18;101228.19;;;7.73;100.00
16580;BME280;8402;51.466;6.806;2023-12-20T07:50:48;101229.78;;;7.74;100.00
16580;BME280;8402;51.466;6.806;2023-12-20T07:53:22;101236.78;;;7.75;100.00
16580;BME280;8402;51.466;6.806;2023-12-20T07:55:52;101228.69;;;7.75;100.00
16580;BME280;8402;51.466;6.806;2023-12-20T07:58:22;101238.38;;;7.81;100.00
16580;BME280;8402;51.466;6.806;2023-12-20T08:01:10;101231.88;;;7.82;100.00
16580;BME280;8402;51.466;6.806;2023-12-20T08:03:40;101222.69;;;7.83;100.00
16580;BME280;8402;51.466;6.806;2023-12-20T08:06:10;101226.47;;;7.82;100.00
16580;BME280;8402;51.466;6.806;2023-12-20T08:08:43;101221.88;;;7.83;100.00
16580;BME280;8402;51.466;6.806;2023-12-20T08:11:27;101233.47;;;7.83;100.00
16580;BME280;8402;51.466;6.806;2023-12-20T08:13:57;101232.94;;;7.86;100.00
16580;BME280;8402;51.466;6.806;2023-12-20T08:16:27;101231.28;;;7.85;100.00
16580;BME280;8402;51.466;6.806;2023-12-20T08:18:57;101230.22;;;7.86;100.00
16580;BME280;8402;51.466;6.806;2023-12-20T08:21:27;101231.91;;;7.77;100.00
16580;BME280;8402;51.466;6.806;2023-12-20T08:24:04;101242.47;;;7.79;100.00
16580;BME280;8402;51.466;6.806;2023-12-20T08:26:34;101227.84;;;7.80;100.00
16580;BME280;8402;51.466;6.806;2023-12-20T08:29:04;101227.06;;;7.79;100.00
16580;BME280;8402;51.466;6.806;2023-12-20T08:31:34;101228.41;;;7.77;100.00
16580;BME280;8402;51.466;6.806;2023-12-20T08:34:06;101240.56;;;7.79;100.00
16580;BME280;8402;51.466;6.806;2023-12-20T08:36:36;101245.41;;;7.77;100.00
16580;BME280;8402;51.466;6.806;2023-12-20T08:39:10;101243.25;;;7.79;100.00
16580;BME280;8402;51.466;6.806;2023-12-20T08:41:40;101245.38;;;7.82;100.00
16580;BME280;8402;51.466;6.806;2023-12-20T08:44:10;101232.47;;;7.79;100.00
16580;BME280;8402;51.466;6.806;2023-12-20T08:46:40;101237.78;;;7.84;100.00
16580;BME280;8402;51.466;6.806;2023-12-20T08:49:10;101246.97;;;7.88;100.00
16580;BME280;8402;51.466;6.806;2023-12-20T08:51:41;101245.06;;;7.89;100.00
16580;BME280;8402;51.466;6.806;2023-12-20T08:54:14;101237.25;;;7.87;100.00
16580;BME280;8402;51.466;6.806;2023-12-20T08:56:44;101232.34;;;7.89;100.00
16580;BME280;8402;51.466;6.806;2023-12-20T08:59:14;101239.94;;;7.87;100.00
16580;BME280;8402;51.466;6.806;2023-12-20T09:01:45;101240.47;;;7.89;100.00
16580;BME280;8402;51.466;6.806;2023-12-20T09:04:21;101241.78;;;7.92;100.00
16580;BME280;8402;51.466;6.806;2023-12-20T09:06:51;101227.72;;;7.95;100.00
16580;BME280;8402;51.466;6.806;2023-12-20T09:09:24;101233.97;;;7.90;100.00
16580;BME280;8402;51.466;6.806;2023-12-20T09:11:54;101236.13;;;7.93;100.00
16580;BME280;8402;51.466;6.806;2023-12-20T09:14:23;101216.09;;;7.94;100.00
16580;BME280;8402;51.466;6.806;2023-12-20T09:16:53;101230.97;;;7.92;100.00
16580;BME280;8402;51.466;6.806;2023-12-20T09:19:24;101235.56;;;7.91;100.00
16580;BME280;8402;51.466;6.806;2023-12-20T09:21:54;101228.56;;;7.90;100.00
16580;BME280;8402;51.466;6.806;2023-12-20T09:24:27;101225.34;;;7.88;100.00
16580;BME280;8402;51.466;6.806;2023-12-20T09:26:57;101214.25;;;7.90;100.00
16580;BME280;8402;51.466;6.806;2023-12-20T09:29:27;101212.34;;;7.90;100.00
16580;BME280;8402;51.466;6.806;2023-12-20T09:31:57;101215.56;;;7.92;100.00
16580;BME280;8402;51.466;6.806;2023-12-20T09:34:27;101210.41;;;7.96;100.00
16580;BME280;8402;51.466;6.806;2023-12-20T09:36:57;101201.97;;;8.03;100.00
16580;BME280;8402;51.466;6.806;2023-12-20T09:39:30;101216.81;;;8.05;100.00
16580;BME280;8402;51.466;6.806;2023-12-20T09:42:03;101216.50;;;8.07;100.00
16580;BME280;8402;51.466;6.806;2023-12-20T09:44:34;101218.66;;;8.10;100.00
16580;BME280;8402;51.466;6.806;2023-12-20T09:47:04;101228.13;;;8.07;100.00
16580;BME280;8402;51.466;6.806;2023-12-20T09:49:35;101223.56;;;8.08;100.00
16580;BME280;8402;51.466;6.806;2023-12-20T09:52:07;101223.00;;;8.06;100.00
16580;BME280;8402;51.466;6.806;2023-12-20T09:54:43;101222.50;;;8.04;100.00
16580;BME280;8402;51.466;6.806;2023-12-20T09:57:13;101215.44;;;8.08;100.00
16580;BME280;8402;51.466;6.806;2023-12-20T09:59:43;101226.28;;;8.03;100.00
16580;BME280;8402;51.466;6.806;2023-12-20T10:02:13;101218.69;;;8.05;100.00
16580;BME280;8402;51.466;6.806;2023-12-20T10:04:47;101228.72;;;8.04;100.00
16580;BME280;8402;51.466;6.806;2023-12-20T10:07:17;101217.69;;;8.00;100.00
16580;BME280;8402;51.466;6.806;2023-12-20T10:09:54;101219.50;;;8.05;100.00
16580;BME280;8402;51.466;6.806;2023-12-20T10:12:25;101228.72;;;8.04;100.00
16580;BME280;8402;51.466;6.806;2023-12-20T10:14:54;101221.97;;;8.02;100.00
16580;BME280;8402;51.466;6.806;2023-12-20T10:17:27;101212.75;;;8.08;100.00
16580;BME280;8402;51.466;6.806;2023-12-20T10:19:57;101209.78;;;8.04;100.00
16580;BME280;8402;51.466;6.806;2023-12-20T10:22:28;101200.53;;;8.10;100.00
16580;BME280;8402;51.466;6.806;2023-12-20T10:25:01;101196.75;;;8.11;100.00
16580;BME280;8402;51.466;6.806;2023-12-20T10:27:31;101203.41;;;8.19;100.00
16580;BME280;8402;51.466;6.806;2023-12-20T10:30:01;101186.91;;;8.20;100.00
16580;BME280;8402;51.466;6.806;2023-12-20T10:32:31;101203.88;;;8.26;100.00
16580;BME280;8402;51.466;6.806;2023-12-20T10:35:01;101194.94;;;8.31;100.00
16580;BME280;8402;51.466;6.806;2023-12-20T10:37:35;101195.72;;;8.31;100.00
16580;BME280;8402;51.466;6.806;2023-12-20T10:40:09;101197.09;;;8.28;100.00
16580;BME280;8402;51.466;6.806;2023-12-20T10:42:39;101207.09;;;8.28;100.00
16580;BME280;8402;51.466;6.806;2023-12-20T10:45:10;101184.66;;;8.27;100.00
16580;BME280;8402;51.466;6.806;2023-12-20T10:47:40;101187.44;;;8.22;100.00
16580;BME280;8402;51.466;6.806;2023-12-20T10:50:14;101183.31;;;8.30;100.00
16580;BME280;8402;51.466;6.806;2023-12-20T10:52:45;101189.22;;;8.32;100.00
16580;BME280;8402;51.466;6.806;2023-12-20T10:55:19;101189.72;;;8.34;100.00
16580;BME280;8402;51.466;6.806;2023-12-20T10:57:49;101191.63;;;8.39;100.00
16580;BME280;8402;51.466;6.806;2023-12-20T11:00:21;101192.41;;;8.39;100.00
16580;BME280;8402;51.466;6.806;2023-12-20T11:02:53;101194.81;;;8.41;100.00
16580;BME280;8402;51.466;6.806;2023-12-20T11:05:33;101194.63;;;8.37;100.00
16580;BME280;8402;51.466;6.806;2023-12-20T11:08:08;101200.81;;;8.38;100.00
16580;BME280;8402;51.466;6.806;2023-12-20T11:10:47;101181.91;;;8.38;100.00
16580;BME280;8402;51.466;6.806;2023-12-20T11:13:22;101192.41;;;8.39;100.00
16580;BME280;8402;51.466;6.806;2023-12-20T11:15:53;101181.56;;;8.44;100.00
16580;BME280;8402;51.466;6.806;2023-12-20T11:18:28;101180.44;;;8.45;100.00
16580;BME280;8402;51.466;6.806;2023-12-20T11:21:01;101177.81;;;8.40;100.00
16580;BME280;8402;51.466;6.806;2023-12-20T11:23:32;101173.16;;;8.46;100.00
16580;BME280;8402;51.466;6.806;2023-12-20T11:26:05;101168.25;;;8.48;100.00
16580;BME280;8402;51.466;6.806;2023-12-20T11:28:35;101172.28;;;8.50;100.00
16580;BME280;8402;51.466;6.806;2023-12-20T11:31:06;101159.84;;;8.49;100.00
16580;BME280;8402;51.466;6.806;2023-12-20T11:33:38;101163.06;;;8.51;100.00
16580;BME280;8402;51.466;6.806;2023-12-20T11:36:13;101163.28;;;8.55;100.00
16580;BME280;8402;51.466;6.806;2023-12-20T11:38:54;101155.97;;;8.55;100.00
16580;BME280;8402;51.466;6.806;2023-12-20T11:41:29;101158.69;;;8.55;100.00
16580;BME280;8402;51.466;6.806;2023-12-20T11:44:04;101150.88;;;8.54;100.00
16580;BME280;8402;51.466;6.806;2023-12-20T11:46:34;101150.00;;;8.59;100.00
16580;BME280;8402;51.466;6.806;2023-12-20T11:49:04;101152.72;;;8.59;100.00
16580;BME280;8402;51.466;6.806;2023-12-20T11:51:34;101149.41;;;8.62;100.00
16580;BME280;8402;51.466;6.806;2023-12-20T11:54:05;101148.31;;;8.63;100.00
16580;BME280;8402;51.466;6.806;2023-12-20T11:56:38;101149.13;;;8.63;100.00
16580;BME280;8402;51.466;6.806;2023-12-20T11:59:08;101156.44;;;8.63;100.00
16580;BME280;8402;51.466;6.806;2023-12-20T12:01:49;101137.72;;;8.66;100.00
16580;BME280;8402;51.466;6.806;2023-12-20T12:04:19;101146.69;;;8.62;100.00
16580;BME280;8402;51.466;6.806;2023-12-20T12:06:49;101143.34;;;8.70;100.00
16580;BME280;8402;51.466;6.806;2023-12-20T12:09:19;101141.22;;;8.67;100.00
16580;BME280;8402;51.466;6.806;2023-12-20T12:11:52;101133.31;;;8.70;100.00
16580;BME280;8402;51.466;6.806;2023-12-20T12:14:22;101128.72;;;8.71;100.00
16580;BME280;8402;51.466;6.806;2023-12-20T12:16:52;101124.41;;;8.70;100.00
16580;BME280;8402;51.466;6.806;2023-12-20T12:19:23;101120.91;;;8.69;100.00
16580;BME280;8402;51.466;6.806;2023-12-20T12:22:04;101123.09;;;8.67;100.00
16580;BME280;8402;51.466;6.806;2023-12-20T12:24:37;101130.72;;;8.65;100.00
16580;BME280;8402;51.466;6.806;2023-12-20T12:27:11;101135.31;;;8.65;100.00
16580;BME280;8402;51.466;6.806;2023-12-20T12:30:02;101135.81;;;8.67;100.00
16580;BME280;8402;51.466;6.806;2023-12-20T12:32:34;101130.34;;;8.72;100.00
16580;BME280;8402;51.466;6.806;2023-12-20T12:35:05;101134.06;;;8.76;100.00
16580;BME280;8402;51.466;6.806;2023-12-20T12:37:37;101121.63;;;8.75;100.00
16580;BME280;8402;51.466;6.806;2023-12-20T12:40:10;101116.81;;;8.72;100.00
16580;BME280;8402;51.466;6.806;2023-12-20T12:42:44;101110.00;;;8.74;100.00
16580;BME280;8402;51.466;6.806;2023-12-20T12:45:14;101100.00;;;8.75;100.00
16580;BME280;8402;51.466;6.806;2023-12-20T12:47:45;101098.09;;;8.75;100.00
16580;BME280;8402;51.466;6.806;2023-12-20T12:50:16;101098.69;;;8.72;100.00
16580;BME280;8402;51.466;6.806;2023-12-20T12:52:46;101099.56;;;8.68;100.00
16580;BME280;8402;51.466;6.806;2023-12-20T12:55:16;101106.28;;;8.70;100.00
16580;BME280;8402;51.466;6.806;2023-12-20T12:57:48;101103.88;;;8.69;100.00
16580;BME280;8402;51.466;6.806;2023-12-20T13:00:19;101101.66;;;8.71;100.00
16580;BME280;8402;51.466;6.806;2023-12-20T13:02:49;101094.09;;;8.73;100.00
16580;BME280;8402;51.466;6.806;2023-12-20T13:05:19;101081.06;;;8.75;100.00
16580;BME280;8402;51.466;6.806;2023-12-20T13:07:49;101090.78;;;8.76;100.00
16580;BME280;8402;51.466;6.806;2023-12-20T13:10:19;101083.16;;;8.78;100.00
16580;BME280;8402;51.466;6.806;2023-12-20T13:12:52;101065.44;;;8.72;100.00
16580;BME280;8402;51.466;6.806;2023-12-20T13:15:22;101069.19;;;8.71;100.00
16580;BME280;8402;51.466;6.806;2023-12-20T13:17:53;101054.06;;;8.70;100.00
16580;BME280;8402;51.466;6.806;2023-12-20T13:20:23;101054.66;;;8.67;100.00